sensor_id;sensor_type;location;lat;lon;timestamp;P1;durP1;ratioP1;P2;durP2;ratioP2
28009;SDS011;15334;49.494;8.410;2024-02-15T05:52:33;8.68;;;4.78;;
28009;SDS011;15334;49.494;8.410;2024-02-15T05:55:02;10.05;;;4.38;;
28009;SDS011;15334;49.494;8.410;2024-02-15T05:57:31;12.13;;;4.75;;
28009;SDS011;15334;49.494;8.410;2024-02-15T05:59:59;8.30;;;3.92;;
28009;SDS011;15334;49.494;8.410;2024-02-15T06:02:42;8.27;;;4.72;;
28009;SDS011;15334;49.494;8.410;2024-02-15T06:05:10;14.20;;;4.97;;
28009;SDS011;15334;49.494;8.410;2024-02-15T16:23:11;5.88;;;1.30;;
28009;SDS011;15334;49.494;8.410;2024-02-15T16:25:39;8.82;;;1.60;;
28009;SDS011;15334;49.494;8.410;2024-02-15T16:28:07;5.03;;;1.42;;
28009;SDS011;15334;49.494;8.410;2024-02-15T16:30:35;4.80;;;1.30;;
28009;SDS011;15334;49.494;8.410;2024-02-15T16:33:04;5.70;;;1.58;;
28009;SDS011;15334;49.494;8.410;2024-02-15T16:35:32;4.35;;;1.58;;
28009;SDS011;15334;49.494;8.410;2024-02-15T16:38:02;5.15;;;1.52;;
28009;SDS011;15334;49.494;8.410;2024-02-15T16:40:32;5.10;;;1.67;;
28009;SDS011;15334;49.494;8.410;2024-02-15T16:43:00;2.55;;;1.42;;
28009;SDS011;15334;49.494;8.410;2024-02-15T16:45:31;3.08;;;1.27;;
28009;SDS011;15334;49.494;8.410;2024-02-15T16:47:59;3.47;;;1.20;;
28009;SDS011;15334;49.494;8.410;2024-02-15T16:50:30;4.53;;;1.60;;
28009;SDS011;15334;49.494;8.410;2024-02-15T16:53:00;4.63;;;1.23;;
28009;SDS011;15334;49.494;8.410;2024-02-15T16:55:29;5.35;;;1.35;;
28009;SDS011;15334;49.494;8.410;2024-02-15T16:58:00;3.00;;;1.33;;
28009;SDS011;15334;49.494;8.410;2024-02-15T17:00:30;4.85;;;1.58;;
28009;SDS011;15334;49.494;8.410;2024-02-15T17:02:59;6.40;;;1.30;;
28009;SDS011;15334;49.494;8.410;2024-02-15T17:05:27;2.05;;;1.17;;
28009;SDS011;15334;49.494;8.410;2024-02-15T17:07:55;6.30;;;1.73;;
28009;SDS011;15334;49.494;8.410;2024-02-15T17:10:24;5.80;;;1.95;;
28009;SDS011;15334;49.494;8.410;2024-02-15T17:12:52;10.88;;;2.75;;
28009;SDS011;15334;49.494;8.410;2024-02-15T17:15:22;8.25;;;1.98;;
28009;SDS011;15334;49.494;8.410;2024-02-15T17:17:53;6.53;;;1.88;;
28009;SDS011;15334;49.494;8.410;2024-02-15T17:20:21;3.65;;;1.48;;
28009;SDS011;15334;49.494;8.410;2024-02-15T17:22:50;2.97;;;1.33;;
28009;SDS011;15334;49.494;8.410;2024-02-15T17:25:19;2.10;;;1.33;;
28009;SDS011;15334;49.494;8.410;2024-02-15T17:27:51;3.92;;;1.40;;
28009;SDS011;15334;49.494;8.410;2024-02-15T17:30:22;4.15;;;2.20;;
28009;SDS011;15334;49.494;8.410;2024-02-15T17:32:51;4.85;;;1.58;;
28009;SDS011;15334;49.494;8.410;2024-02-15T17:35:20;5.15;;;1.85;;
28009;SDS011;15334;49.494;8.410;2024-02-15T17:37:48;9.70;;;1.77;;
28009;SDS011;15334;49.494;8.410;2024-02-15T17:40:17;11.70;;;3.30;;
28009;SDS011;15334;49.494;8.410;2024-02-15T17:42:45;7.22;;;2.78;;
28009;SDS011;15334;49.494;8.410;2024-02-15T17:45:13;10.07;;;1.88;;
28009;SDS011;15334;49.494;8.410;2024-02-15T17:47:44;6.90;;;2.08;;
28009;SDS011;15334;49.494;8.410;2024-02-15T17:50:13;7.25;;;2.42;;
28009;SDS011;15334;49.494;8.410;2024-02-15T17:52:43;5.82;;;2.05;;
28009;SDS011;15334;49.494;8.410;2024-02-15T17:55:12;6.93;;;2.40;;
28009;SDS011;15334;49.494;8.410;2024-02-15T17:57:42;6.68;;;2.05;;
28009;SDS011;15334;49.494;8.410;2024-02-15T18:00:10;8.95;;;2.20;;
28009;SDS011;15334;49.494;8.410;2024-02-15T18:02:44;6.43;;;1.80;;
28009;SDS011;15334;49.494;8.410;2024-02-15T18:07:44;6.82;;;1.80;;
28009;SDS011;15334;49.494;8.410;2024-02-15T18:10:13;9.32;;;1.90;;
28009;SDS011;15334;49.494;8.410;2024-02-15T18:12:41;3.75;;;1.80;;
28009;SDS011;15334;49.494;8.410;2024-02-15T18:15:09;5.43;;;1.95;;
28009;SDS011;15334;49.494;8.410;2024-02-15T18:17:45;5.32;;;2.33;;
28009;SDS011;15334;49.494;8.410;2024-02-15T18:20:14;4.15;;;1.85;;
28009;SDS011;15334;49.494;8.410;2024-02-15T18:22:44;3.80;;;1.80;;
28009;SDS011;15334;49.494;8.410;2024-02-15T18:25:12;6.50;;;2.05;;
28009;SDS011;15334;49.494;8.410;2024-02-15T18:27:40;5.45;;;2.53;;
28009;SDS011;15334;49.494;8.410;2024-02-15T18:30:09;4.88;;;2.30;;
28009;SDS011;15334;49.494;8.410;2024-02-15T18:32:41;5.05;;;2.78;;
28009;SDS011;15334;49.494;8.410;2024-02-15T18:35:10;10.27;;;3.88;;
28009;SDS011;15334;49.494;8.410;2024-02-15T18:37:41;11.10;;;4.13;;
28009;SDS011;15334;49.494;8.410;2024-02-15T18:40:09;13.68;;;4.43;;
28009;SDS011;15334;49.494;8.410;2024-02-15T18:42:50;8.07;;;3.13;;
28009;SDS011;15334;49.494;8.410;2024-02-15T18:45:18;11.98;;;3.05;;
28009;SDS011;15334;49.494;8.410;2024-02-15T18:47:47;10.73;;;3.25;;
28009;SDS011;15334;49.494;8.410;2024-02-15T18:50:17;7.93;;;3.03;;
28009;SDS011;15334;49.494;8.410;2024-02-15T18:52:47;13.57;;;3.25;;
28009;SDS011;15334;49.494;8.410;2024-02-15T18:55:15;13.30;;;2.63;;
28009;SDS011;15334;49.494;8.410;2024-02-15T18:57:43;11.27;;;3.00;;
28009;SDS011;15334;49.494;8.410;2024-02-15T19:00:13;8.88;;;3.25;;
28009;SDS011;15334;49.494;8.410;2024-02-15T19:02:59;11.48;;;4.63;;
28009;SDS011;15334;49.494;8.410;2024-02-15T19:05:29;10.18;;;4.13;;
28009;SDS011;15334;49.494;8.410;2024-02-15T19:07:58;10.93;;;4.57;;
28009;SDS011;15334;49.494;8.410;2024-02-15T19:10:26;13.40;;;4.55;;
28009;SDS011;15334;49.494;8.410;2024-02-15T19:12:54;13.57;;;4.07;;
28009;SDS011;15334;49.494;8.410;2024-02-15T19:15:22;14.48;;;3.92;;
28009;SDS011;15334;49.494;8.410;2024-02-15T19:17:50;10.77;;;3.78;;
28009;SDS011;15334;49.494;8.410;2024-02-15T19:20:19;9.95;;;4.63;;
28009;SDS011;15334;49.494;8.410;2024-02-15T19:22:49;8.18;;;3.45;;
28009;SDS011;15334;49.494;8.410;2024-02-15T19:25:16;13.38;;;4.20;;
28009;SDS011;15334;49.494;8.410;2024-02-15T19:27:46;15.52;;;4.30;;
28009;SDS011;15334;49.494;8.410;2024-02-15T19:30:15;6.90;;;3.47;;
28009;SDS011;15334;49.494;8.410;2024-02-15T19:32:44;12.00;;;3.47;;
28009;SDS011;15334;49.494;8.410;2024-02-15T19:35:16;8.27;;;4.05;;
28009;SDS011;15334;49.494;8.410;2024-02-15T19:37:45;22.13;;;9.35;;
28009;SDS011;15334;49.494;8.410;2024-02-15T19:40:14;18.58;;;6.07;;
28009;SDS011;15334;49.494;8.410;2024-02-15T19:42:46;14.13;;;4.95;;
28009;SDS011;15334;49.494;8.410;2024-02-15T19:45:16;11.15;;;4.57;;
28009;SDS011;15334;49.494;8.410;2024-02-15T19:47:47;11.93;;;5.30;;
28009;SDS011;15334;49.494;8.410;2024-02-15T19:50:16;15.80;;;4.72;;
28009;SDS011;15334;49.494;8.410;2024-02-15T19:52:48;8.73;;;4.10;;
28009;SDS011;15334;49.494;8.410;2024-02-15T19:55:17;14.15;;;4.55;;
28009;SDS011;15334;49.494;8.410;2024-02-15T19:57:45;17.52;;;5.43;;
28009;SDS011;15334;49.494;8.410;2024-02-15T20:00:13;12.73;;;4.88;;
28009;SDS011;15334;49.494;8.410;2024-02-15T20:02:43;7.68;;;3.65;;
28009;SDS011;15334;49.494;8.410;2024-02-15T20:05:12;9.43;;;4.45;;
28009;SDS011;15334;49.494;8.410;2024-02-15T20:07:40;13.27;;;5.53;;
28009;SDS011;15334;49.494;8.410;2024-02-15T20:10:09;11.85;;;4.75;;
28009;SDS011;15334;49.494;8.410;2024-02-15T20:12:39;11.88;;;4.38;;
28009;SDS011;15334;49.494;8.410;2024-02-15T20:15:07;9.15;;;4.13;;
28009;SDS011;15334;49.494;8.410;2024-02-15T20:17:37;9.82;;;3.88;;
28009;SDS011;15334;49.494;8.410;2024-02-15T20:20:06;9.43;;;4.35;;
28009;SDS011;15334;49.494;8.410;2024-02-15T20:22:35;8.48;;;4.07;;
28009;SDS011;15334;49.494;8.410;2024-02-15T20:25:07;8.30;;;3.90;;
28009;SDS011;15334;49.494;8.410;2024-02-15T20:27:36;11.50;;;4.10;;
28009;SDS011;15334;49.494;8.410;2024-02-15T20:30:06;12.27;;;3.95;;
28009;SDS011;15334;49.494;8.410;2024-02-15T20:32:36;11.35;;;4.13;;
28009;SDS011;15334;49.494;8.410;2024-02-15T20:35:04;14.55;;;4.10;;
28009;SDS011;15334;49.494;8.410;2024-02-15T20:37:32;9.82;;;3.90;;
28009;SDS011;15334;49.494;8.410;2024-02-15T20:40:01;12.75;;;4.28;;
28009;SDS011;15334;49.494;8.410;2024-02-15T20:42:29;9.57;;;4.38;;
28009;SDS011;15334;49.494;8.410;2024-02-15T20:44:56;12.52;;;3.55;;
28009;SDS011;15334;49.494;8.410;2024-02-15T20:47:27;6.70;;;3.63;;
28009;SDS011;15334;49.494;8.410;2024-02-15T20:49:58;12.57;;;4.50;;
28009;SDS011;15334;49.494;8.410;2024-02-15T20:52:27;8.60;;;3.72;;
28009;SDS011;15334;49.494;8.410;2024-02-15T20:54:55;12.48;;;3.97;;
28009;SDS011;15334;49.494;8.410;2024-02-15T20:57:24;8.85;;;3.75;;
28009;SDS011;15334;49.494;8.410;2024-02-15T20:59:53;8.55;;;3.50;;
28009;SDS011;15334;49.494;8.410;2024-02-15T21:02:21;9.30;;;3.50;;
28009;SDS011;15334;49.494;8.410;2024-02-15T21:04:51;7.53;;;3.47;;
28009;SDS011;15334;49.494;8.410;2024-02-15T21:07:19;12.95;;;3.70;;
28009;SDS011;15334;49.494;8.410;2024-02-15T21:09:48;6.85;;;2.92;;
28009;SDS011;15334;49.494;8.410;2024-02-15T21:12:16;9.27;;;2.92;;
28009;SDS011;15334;49.494;8.410;2024-02-15T21:14:44;10.32;;;3.50;;
28009;SDS011;15334;49.494;8.410;2024-02-15T21:17:12;10.50;;;3.47;;
28009;SDS011;15334;49.494;8.410;2024-02-15T21:19:42;11.88;;;3.17;;
28009;SDS011;15334;49.494;8.410;2024-02-15T21:22:12;10.43;;;3.55;;
28009;SDS011;15334;49.494;8.410;2024-02-15T21:24:39;8.48;;;3.17;;
28009;SDS011;15334;49.494;8.410;2024-02-15T21:27:08;8.18;;;3.33;;
28009;SDS011;15334;49.494;8.410;2024-02-15T21:29:36;6.43;;;3.00;;
28009;SDS011;15334;49.494;8.410;2024-02-15T21:32:06;9.18;;;3.50;;
28009;SDS011;15334;49.494;8.410;2024-02-15T21:34:34;12.27;;;4.28;;
28009;SDS011;15334;49.494;8.410;2024-02-15T21:37:03;8.25;;;3.90;;
28009;SDS011;15334;49.494;8.410;2024-02-15T21:39:32;11.82;;;3.78;;
